Detall de PIREP

Printer-friendly versionPDF version

[2012/11/22 08:47:00]
Flight IATA:CT3110
Pilot Number:011
Company ICAO:CAT
Aircraft Type:F28/A
PAX:85
Departing Airport: LEBL
Destination Airport: LEPA
Alternate Airport:LEBL
Online: VATSIM
Route:LARPA B31 TOLSO
Flight Level:F170
No Slew and time accel
No pause
Crash detect
Detect pilot in Cockpit between each 30 and 45 minutes
08:47 Zero fuel Weight: 58657 Lbs, Fuel Weight: 9142 Lbs
08:47 VATSIM:LEBL 220800Z 33010KT 9999 FEW025 13/09 Q1023 NOSIG
08:47 VATSIM:LEPA 220800Z 02003KT 330V060 9999 FEW016 FEW020CB 12/12 Q1022 NOSIG
08:50 Parking Brakes off
09:01 Take-off
09:01 Take off Weight: 67205 Lbs
09:01 Wind: 332º @ 009 Knots Heading: 201º
09:01 POS N41º 17´ 44´´ E002º 05´ 18´´
09:01 Gear Up: 179 Knots
09:01 Flaps:2 at 180 Knots
09:01 Flaps:1 at 229 Knots
09:01 Flaps:0 at 234 Knots
09:10 TOC
09:10 Fuel Weight: 7394 Lb
09:16 Wind:336º@014 Knots Heading: 160º Ground Speed: 373 Knots Altitude 17250 ft
09:16 TOD
09:16 Fuel Weight: 6798 Lb
09:30 Flaps:1 at 226 Knots
09:31 Wind:042º@003 Knots Heading: 094º Ground Speed: 220 Knots Altitude 2398 ft
09:31 Flaps:2 at 186 Knots
09:34 Flaps:3 at 168 Knots
09:34 Gear Down: 167 Knots
09:34 Flaps:4 at 149 Knots
09:35 Flaps:5 at 141 Knots
09:36 TouchDown:Rate -176 ft/min Speed: 102 Knots
09:36 VATSIM:LEPA 220830Z 04003KT 010V070 9999 FEW016 FEW020CB 13/13 Q1022 NOSIG
09:36 Land
09:36 Wind:042º@003 Knots
09:36 Heading: 058º
09:36 Flight Duration: 00:35
09:36 Landing Weight: 64655 Lbs
09:36 POS N39º 33´ 11´´ E002º 43´ 24´´
09:39 Parking brakes on
09:39 Block to Block Duration: 00:49
09:39 Final Fuel: 5886 Lbls
09:39 Spent Fuel: 3256 Lbls
09:39 Flight Length: 66 NM
09:39 TOD Land Length: 53 NM

Exportar CSV

Powered by Drupal - Modified by Danger4k